createdAt,value
2023-04-12T00:01:11.723Z,98583.05
2023-04-12T00:03:40.916Z,98574.20
2023-04-12T00:06:10.622Z,98568.29
2023-04-12T00:08:39.106Z,98572.97
2023-04-12T00:11:07.944Z,98569.02
2023-04-12T00:13:36.498Z,98566.42
2023-04-12T00:16:07.128Z,98560.63
2023-04-12T00:18:36.077Z,98558.50
2023-04-12T00:21:05.314Z,98552.13
2023-04-12T00:23:34.073Z,98550.48
2023-04-12T00:26:02.637Z,98547.65
2023-04-12T00:28:31.868Z,98545.05
2023-04-12T00:31:00.473Z,98542.80
2023-04-12T00:33:29.083Z,98537.70
2023-04-12T00:35:59.727Z,98537.36
2023-04-12T00:38:28.559Z,98541.06
2023-04-12T00:40:58.143Z,98541.82
2023-04-12T00:43:27.632Z,98544.06
2023-04-12T00:45:58.201Z,98542.67
2023-04-12T00:48:29.152Z,98543.02
2023-04-12T00:50:58.815Z,98541.13
2023-04-12T00:53:28.866Z,98543.02
2023-04-12T00:55:59.013Z,98544.15
2023-04-12T00:58:27.881Z,98542.95
2023-04-12T01:00:57.455Z,98546.03
2023-04-12T01:03:28.190Z,98538.54
2023-04-12T01:06:30.035Z,98535.82
2023-04-12T01:09:16.888Z,98536.16
2023-04-12T01:12:02.568Z,98536.02
2023-04-12T01:14:58.588Z,98539.05
2023-04-12T01:17:31.506Z,98539.85
2023-04-12T01:20:19.842Z,98539.23
2023-04-12T01:23:19.205Z,98531.58
2023-04-12T01:25:59.064Z,98526.70
2023-04-12T01:28:35.328Z,98524.05
2023-04-12T01:31:06.897Z,98519.01
2023-04-12T01:33:38.875Z,98518.10
2023-04-12T01:36:16.728Z,98514.90
2023-04-12T01:38:47.183Z,98513.86
2023-04-12T01:41:16.574Z,98514.50
2023-04-12T01:43:48.034Z,98514.48
2023-04-12T01:46:23.416Z,98509.83
2023-04-12T01:48:54.495Z,98511.69
2023-04-12T01:51:48.414Z,98508.81
2023-04-12T01:54:29.647Z,98506.80
2023-04-12T01:57:02.694Z,98506.86
2023-04-12T01:59:38.262Z,98506.60
2023-04-12T02:02:08.532Z,98504.37
2023-04-12T02:04:38.751Z,98502.27
2023-04-12T02:07:07.425Z,98501.20
2023-04-12T02:09:39.804Z,98499.76
2023-04-12T02:12:09.350Z,98496.40
2023-04-12T02:14:38.123Z,98496.63
2023-04-12T02:17:08.281Z,98492.75
2023-04-12T02:19:37.070Z,98489.65
2023-04-12T02:22:07.872Z,98487.44
2023-04-12T02:24:36.545Z,98484.13
2023-04-12T02:27:05.823Z,98484.54
2023-04-12T02:29:34.561Z,98481.68
2023-04-12T02:32:03.253Z,98483.55
2023-04-12T02:34:34.502Z,98486.80
2023-04-12T02:37:22.133Z,98486.08
2023-04-12T02:39:50.831Z,98487.32
2023-04-12T02:42:19.525Z,98485.27
2023-04-12T02:44:50.186Z,98481.06
2023-04-12T02:47:18.846Z,98475.96
2023-04-12T02:49:49.027Z,98481.05
2023-04-12T02:52:18.685Z,98474.65
2023-04-12T02:55:00.703Z,98476.19
2023-04-12T02:57:29.432Z,98468.59
2023-04-12T02:59:58.121Z,98470.55
2023-04-12T03:02:34.149Z,98465.08
2023-04-12T03:05:05.319Z,98463.77
2023-04-12T03:07:40.786Z,98464.92
2023-04-12T03:10:14.219Z,98467.05
2023-04-12T03:12:46.837Z,98460.87
2023-04-12T03:15:20.496Z,98466.02
2023-04-12T03:17:50.258Z,98460.54
2023-04-12T03:20:24.603Z,98460.64
2023-04-12T03:23:10.790Z,98466.41
2023-04-12T03:25:44.544Z,98465.73
2023-04-12T03:28:31.541Z,98460.45
2023-04-12T03:31:00.865Z,98452.54
2023-04-12T03:33:38.294Z,98449.90
2023-04-12T03:36:07.900Z,98448.88
2023-04-12T03:38:36.557Z,98457.10
2023-04-12T03:41:06.507Z,98455.55
2023-04-12T03:43:38.724Z,98457.55
2023-04-12T03:46:15.777Z,98466.09
2023-04-12T03:48:45.216Z,98467.09
2023-04-12T03:51:13.880Z,98474.84
2023-04-12T03:53:45.149Z,98475.70
2023-04-12T03:56:16.879Z,98473.92
2023-04-12T03:58:48.384Z,98474.85
2023-04-12T04:01:18.257Z,98477.02
2023-04-12T04:03:48.628Z,98476.34
2023-04-12T04:06:23.812Z,98474.45
2023-04-12T04:08:57.370Z,98478.75
2023-04-12T04:11:28.607Z,98473.48
2023-04-12T04:14:02.295Z,98474.71
2023-04-12T04:16:38.205Z,98480.60
2023-04-12T04:19:08.152Z,98476.23
2023-04-12T04:21:36.751Z,98470.86
2023-04-12T04:24:07.170Z,98480.80
2023-04-12T04:26:38.774Z,98479.42
2023-04-12T04:29:30.316Z,98487.48
2023-04-12T04:31:58.899Z,98496.34
2023-04-12T04:34:27.708Z,98494.67
2023-04-12T04:37:02.577Z,98492.91
2023-04-12T04:39:31.234Z,98499.58
2023-04-12T04:42:00.759Z,98496.24
2023-04-12T04:44:36.363Z,98499.05
2023-04-12T04:47:07.147Z,98498.55
2023-04-12T04:49:38.086Z,98502.55
2023-04-12T04:52:14.888Z,98501.95
2023-04-12T04:54:45.791Z,98499.95
2023-04-12T04:57:15.028Z,98500.66
2023-04-12T04:59:43.833Z,98502.75
2023-04-12T05:02:17.650Z,98503.17
2023-04-12T05:04:46.823Z,98501.67
2023-04-12T05:07:27.580Z,98501.46
2023-04-12T05:09:57.033Z,98504.08
2023-04-12T05:12:31.612Z,98504.55
2023-04-12T05:17:34.455Z,98506.92
2023-04-12T05:20:06.477Z,98505.66
2023-04-12T05:22:35.982Z,98501.48
2023-04-12T05:25:06.626Z,98504.16
2023-04-12T05:27:39.184Z,98502.98
2023-04-12T05:30:26.357Z,98489.77
2023-04-12T05:32:55.738Z,98488.95
2023-04-12T05:35:26.835Z,98484.46
2023-04-12T05:37:59.406Z,98486.21
2023-04-12T05:40:28.051Z,98481.48
2023-04-12T05:42:57.029Z,98481.08
2023-04-12T05:45:26.588Z,98483.41
2023-04-12T05:47:56.139Z,98483.55
2023-04-12T05:50:27.585Z,98479.36
2023-04-12T05:52:56.815Z,98479.27
2023-04-12T05:55:32.572Z,98490.02
2023-04-12T05:58:02.111Z,98491.70
2023-04-12T06:00:31.065Z,98487.60
2023-04-12T06:03:06.183Z,98487.39
2023-04-12T06:05:35.220Z,98491.20
2023-04-12T06:08:05.685Z,98485.46
2023-04-12T06:10:34.571Z,98485.75
2023-04-12T06:13:03.370Z,98484.55
2023-04-12T06:15:33.749Z,98486.61
2023-04-12T06:18:02.451Z,98485.89
2023-04-12T06:20:31.590Z,98480.98
2023-04-12T06:23:00.300Z,98478.58
2023-04-12T06:25:29.091Z,98476.20
2023-04-12T06:27:59.687Z,98470.52
2023-04-12T06:30:28.951Z,98470.55
2023-04-12T06:33:04.509Z,98474.38
2023-04-12T06:35:34.152Z,98473.30
2023-04-12T06:38:03.805Z,98476.01
2023-04-12T06:40:32.708Z,98477.64
2023-04-12T06:43:01.909Z,98479.14
2023-04-12T06:45:31.013Z,98472.51
2023-04-12T06:48:00.134Z,98484.54
2023-04-12T06:50:29.178Z,98483.98
2023-04-12T06:52:58.009Z,98487.65
2023-04-12T06:55:29.234Z,98488.26
2023-04-12T06:57:57.917Z,98491.36
2023-04-12T07:00:27.109Z,98486.98
2023-04-12T07:02:56.256Z,98487.33
2023-04-12T07:05:25.054Z,98484.98
2023-04-12T07:07:53.816Z,98484.31
2023-04-12T07:10:22.522Z,98488.46
2023-04-12T07:12:52.574Z,98486.58
2023-04-12T07:15:27.909Z,98488.77
2023-04-12T07:18:26.847Z,98480.52
2023-04-12T07:20:59.416Z,98486.52
2023-04-12T07:23:31.644Z,98489.58
2023-04-12T07:26:02.676Z,98489.20
2023-04-12T07:28:31.469Z,98487.55
2023-04-12T07:31:00.230Z,98486.08
2023-04-12T07:33:32.290Z,98485.89
2023-04-12T07:36:01.236Z,98482.41
2023-04-12T07:38:29.947Z,98478.76
2023-04-12T07:40:58.651Z,98480.00
2023-04-12T07:43:28.752Z,98479.90
2023-04-12T07:45:57.706Z,98478.27
2023-04-12T07:48:27.220Z,98477.55
2023-04-12T07:50:59.740Z,98477.71
2023-04-12T07:53:29.629Z,98478.41
2023-04-12T07:55:58.281Z,98474.70
2023-04-12T07:58:26.913Z,98477.22
2023-04-12T08:00:59.179Z,98477.38
2023-04-12T08:03:31.227Z,98481.73
2023-04-12T08:06:02.425Z,98480.33
2023-04-12T08:08:31.331Z,98475.87
2023-04-12T08:13:48.083Z,98478.30
2023-04-12T08:16:16.799Z,98470.98
2023-04-12T08:18:45.646Z,98482.80
2023-04-12T08:21:14.506Z,98488.02
2023-04-12T08:23:45.961Z,98480.70
2023-04-12T08:26:14.696Z,98479.36
2023-04-12T08:28:43.793Z,98470.72
2023-04-12T08:31:13.414Z,98479.77
2023-04-12T08:33:41.891Z,98480.20
2023-04-12T08:36:10.842Z,98475.83
2023-04-12T08:38:45.423Z,98477.75
2023-04-12T08:41:15.346Z,98473.83
2023-04-12T08:43:46.545Z,98474.62
2023-04-12T08:46:16.499Z,98476.77
2023-04-12T08:48:48.427Z,98479.95
2023-04-12T08:51:20.760Z,98483.27
2023-04-12T08:53:49.447Z,98497.80
2023-04-12T08:56:30.700Z,98495.80
2023-04-12T08:59:01.228Z,98498.72
2023-04-12T09:01:30.167Z,98495.87
2023-04-12T09:03:59.564Z,98494.20
2023-04-12T09:06:28.630Z,98490.44
2023-04-12T09:08:58.262Z,98492.00
2023-04-12T09:11:28.958Z,98492.98
2023-04-12T09:13:59.079Z,98496.22
2023-04-12T09:16:42.449Z,98494.23
2023-04-12T09:19:11.673Z,98496.65
2023-04-12T09:21:56.094Z,98495.17
2023-04-12T09:24:25.227Z,98502.60
2023-04-12T09:27:07.739Z,98513.67
2023-04-12T09:29:38.671Z,98519.31
2023-04-12T09:32:09.972Z,98515.30
2023-04-12T09:34:39.313Z,98513.70
2023-04-12T09:37:18.097Z,98511.25
2023-04-12T09:39:46.756Z,98510.42
2023-04-12T09:42:32.489Z,98501.11
2023-04-12T09:45:21.144Z,98497.59
2023-04-12T09:47:50.270Z,98495.99
2023-04-12T09:50:30.034Z,98503.79
2023-04-12T09:53:04.319Z,98500.58
2023-04-12T09:55:46.605Z,98499.29
2023-04-12T09:58:19.646Z,98500.46
2023-04-12T10:00:49.623Z,98493.73
2023-04-12T10:03:19.136Z,98496.41
2023-04-12T10:05:47.961Z,98495.24
2023-04-12T10:08:18.260Z,98493.02
2023-04-12T10:10:48.379Z,98482.86
2023-04-12T10:13:18.301Z,98484.86
2023-04-12T10:15:51.283Z,98482.90
2023-04-12T10:18:27.598Z,98486.57
2023-04-12T10:20:56.936Z,98490.92
2023-04-12T10:23:26.349Z,98494.23
2023-04-12T10:25:57.450Z,98499.11
2023-04-12T10:28:32.948Z,98497.27
2023-04-12T10:31:33.523Z,98494.36
2023-04-12T10:34:03.123Z,98497.81
2023-04-12T10:37:13.386Z,98500.81
2023-04-12T10:39:47.703Z,98499.35
2023-04-12T10:42:30.074Z,98503.72
2023-04-12T10:45:39.588Z,98503.52
2023-04-12T10:48:10.062Z,98508.23
2023-04-12T10:50:40.419Z,98505.75
2023-04-12T10:53:18.472Z,98501.67
2023-04-12T10:55:47.252Z,98497.34
2023-04-12T10:59:00.751Z,98507.63
2023-04-12T11:01:36.630Z,98510.61
2023-04-12T11:04:22.021Z,98510.34
2023-04-12T11:07:13.312Z,98508.11
2023-04-12T11:09:57.967Z,98513.22
2023-04-12T11:12:30.931Z,98514.20
2023-04-12T11:15:04.365Z,98515.35
2023-04-12T11:18:01.260Z,98520.34
2023-04-12T11:20:30.218Z,98523.52
2023-04-12T11:23:02.199Z,98527.29
2023-04-12T11:25:32.179Z,98527.27
2023-04-12T11:28:01.836Z,98530.95
2023-04-12T11:30:31.973Z,98527.81
2023-04-12T11:33:00.754Z,98527.90
2023-04-12T11:35:30.708Z,98528.67
2023-04-12T11:37:59.339Z,98529.67
2023-04-12T11:40:28.454Z,98525.11
2023-04-12T11:42:58.021Z,98528.02
2023-04-12T11:45:27.103Z,98532.12
2023-04-12T11:47:58.261Z,98533.79
2023-04-12T11:50:31.804Z,98531.30
2023-04-12T11:53:13.848Z,98532.22
2023-04-12T11:55:50.149Z,98527.59
2023-04-12T11:58:29.225Z,98523.65
2023-04-12T12:00:58.993Z,98523.98
2023-04-12T12:03:28.507Z,98522.95
2023-04-12T12:05:58.462Z,98522.70
2023-04-12T12:08:27.937Z,98528.00
2023-04-12T12:11:07.061Z,98524.98
2023-04-12T12:13:55.030Z,98522.05
2023-04-12T12:16:29.356Z,98526.38
2023-04-12T12:18:58.761Z,98533.70
2023-04-12T12:21:28.773Z,98535.83
2023-04-12T12:23:58.771Z,98536.45
2023-04-12T12:26:28.742Z,98533.13
2023-04-12T12:29:00.884Z,98540.09
2023-04-12T12:31:31.416Z,98542.98
2023-04-12T12:34:07.436Z,98546.25
2023-04-12T12:36:39.161Z,98538.64
2023-04-12T12:39:13.137Z,98539.40
2023-04-12T12:41:41.936Z,98538.58
2023-04-12T12:44:12.441Z,98537.17
2023-04-12T12:46:53.577Z,98534.88
2023-04-12T12:49:24.280Z,98535.48
2023-04-12T12:51:53.068Z,98528.56
2023-04-12T12:54:38.781Z,98535.27
2023-04-12T12:57:09.984Z,98535.68
2023-04-12T12:59:38.767Z,98536.81
2023-04-12T13:02:08.181Z,98532.77
2023-04-12T13:04:40.539Z,98532.11
2023-04-12T13:07:09.215Z,98529.53
2023-04-12T13:09:38.337Z,98531.35
2023-04-12T13:12:06.977Z,98532.94
2023-04-12T13:14:36.023Z,98529.69
2023-04-12T13:17:08.541Z,98535.44
2023-04-12T13:19:37.290Z,98537.36
2023-04-12T13:22:07.567Z,98542.77
2023-04-12T13:24:36.757Z,98547.13
2023-04-12T13:27:05.710Z,98548.13
2023-04-12T13:29:44.784Z,98549.61
2023-04-12T13:32:14.448Z,98555.05
2023-04-12T13:34:43.013Z,98555.02
2023-04-12T13:37:12.072Z,98563.59
2023-04-12T13:39:42.346Z,98566.61
2023-04-12T13:42:11.409Z,98566.90
2023-04-12T13:44:40.518Z,98571.34
2023-04-12T13:47:12.945Z,98576.25
2023-04-12T13:49:42.136Z,98576.20
2023-04-12T13:52:10.947Z,98576.83
2023-04-12T13:54:41.018Z,98582.13
2023-04-12T13:57:10.631Z,98583.70
2023-04-12T13:59:39.615Z,98584.01
2023-04-12T14:02:08.434Z,98589.70
2023-04-12T14:04:51.973Z,98591.51
2023-04-12T14:07:21.442Z,98587.35
2023-04-12T14:09:50.284Z,98590.13
2023-04-12T14:12:19.579Z,98588.52
2023-04-12T14:14:48.354Z,98590.95
2023-04-12T14:17:17.065Z,98594.33
2023-04-12T14:19:46.016Z,98594.60
2023-04-12T14:22:21.295Z,98599.47
2023-04-12T14:24:50.582Z,98598.45
2023-04-12T14:27:19.805Z,98598.54
2023-04-12T14:29:48.633Z,98603.56
2023-04-12T14:32:24.690Z,98605.95
2023-04-12T14:34:54.072Z,98604.88
2023-04-12T14:37:23.290Z,98607.86
2023-04-12T14:39:54.919Z,98608.92
2023-04-12T14:42:27.024Z,98610.38
2023-04-12T14:44:55.822Z,98609.80
2023-04-12T14:47:25.211Z,98619.21
2023-04-12T14:49:54.287Z,98624.67
2023-04-12T14:52:23.453Z,98622.79
2023-04-12T14:54:52.252Z,98624.20
2023-04-12T14:57:20.998Z,98623.57
2023-04-12T14:59:51.033Z,98630.17
2023-04-12T15:02:22.175Z,98630.13
2023-04-12T15:04:52.779Z,98628.64
2023-04-12T15:07:24.586Z,98627.92
2023-04-12T15:09:58.591Z,98634.55
2023-04-12T15:12:33.631Z,98632.61
2023-04-12T15:15:06.008Z,98629.67
2023-04-12T15:17:35.851Z,98635.74
2023-04-12T15:20:09.522Z,98635.21
2023-04-12T15:22:41.221Z,98635.98
2023-04-12T15:25:12.070Z,98632.74
2023-04-12T15:27:40.968Z,98635.73
2023-04-12T15:30:11.150Z,98631.86
2023-04-12T15:32:42.611Z,98636.55
2023-04-12T15:37:44.435Z,98642.77
2023-04-12T15:40:15.979Z,98643.16
2023-04-12T15:42:44.782Z,98644.62
2023-04-12T15:45:13.577Z,98644.30
2023-04-12T15:47:42.974Z,98644.66
2023-04-12T15:50:13.099Z,98646.48
2023-04-12T15:52:43.363Z,98642.81
2023-04-12T15:55:12.202Z,98643.08
2023-04-12T15:57:40.969Z,98641.11
2023-04-12T16:00:21.145Z,98643.58
2023-04-12T16:02:56.522Z,98635.43
2023-04-12T16:05:26.343Z,98637.44
2023-04-12T16:07:55.070Z,98635.52
2023-04-12T16:10:24.034Z,98637.38
2023-04-12T16:12:54.237Z,98637.82
2023-04-12T16:15:23.237Z,98636.37
2023-04-12T16:17:54.641Z,98634.55
2023-04-12T16:20:24.247Z,98635.24
2023-04-12T16:22:54.658Z,98632.15
2023-04-12T16:25:28.243Z,98633.14
2023-04-12T16:27:57.429Z,98631.02
2023-04-12T16:30:26.267Z,98628.41
2023-04-12T16:32:55.241Z,98628.64
2023-04-12T16:35:24.734Z,98626.89
2023-04-12T16:37:57.599Z,98631.27
2023-04-12T16:40:27.073Z,98630.86
2023-04-12T16:42:55.805Z,98630.52
2023-04-12T16:45:24.998Z,98632.88
2023-04-12T16:47:55.029Z,98639.75
2023-04-12T16:50:25.925Z,98639.36
2023-04-12T16:52:54.704Z,98640.71
2023-04-12T16:55:24.423Z,98639.23
2023-04-12T16:57:56.333Z,98639.11
2023-04-12T17:00:29.068Z,98639.02
2023-04-12T17:02:58.143Z,98639.39
2023-04-12T17:05:27.424Z,98643.54
2023-04-12T17:07:58.220Z,98644.61
2023-04-12T17:10:27.676Z,98642.33
2023-04-12T17:13:00.085Z,98641.59
2023-04-12T17:15:30.156Z,98641.63
2023-04-12T17:18:09.931Z,98643.86
2023-04-12T17:20:39.261Z,98643.91
2023-04-12T17:23:10.300Z,98644.83
2023-04-12T17:25:39.576Z,98646.44
2023-04-12T17:28:09.082Z,98647.55
2023-04-12T17:30:37.768Z,98646.73
2023-04-12T17:33:09.768Z,98647.86
2023-04-12T17:35:38.703Z,98651.76
2023-04-12T17:38:07.886Z,98649.94
2023-04-12T17:40:41.944Z,98659.05
2023-04-12T17:43:10.598Z,98658.75
2023-04-12T17:45:40.149Z,98657.59
2023-04-12T17:48:11.555Z,98658.77
2023-04-12T17:50:45.582Z,98662.04
2023-04-12T17:53:14.685Z,98664.79
2023-04-12T17:55:44.276Z,98674.19
2023-04-12T17:58:13.264Z,98672.20
2023-04-12T18:00:44.037Z,98677.46
2023-04-12T18:03:15.911Z,98683.08
2023-04-12T18:05:46.542Z,98690.86
2023-04-12T18:08:17.132Z,98685.83
2023-04-12T18:10:47.595Z,98687.09
2023-04-12T18:13:16.653Z,98684.39
2023-04-12T18:15:46.003Z,98684.89
2023-04-12T18:18:14.718Z,98681.77
2023-04-12T18:20:43.470Z,98682.89
2023-04-12T18:23:12.793Z,98683.89
2023-04-12T18:25:41.363Z,98682.67
2023-04-12T18:28:11.127Z,98681.79
2023-04-12T18:30:40.643Z,98682.67
2023-04-12T18:33:09.292Z,98682.61
2023-04-12T18:35:40.101Z,98680.13
2023-04-12T18:38:12.250Z,98685.59
2023-04-12T18:40:41.989Z,98687.20
2023-04-12T18:43:13.200Z,98689.11
2023-04-12T18:45:42.531Z,98688.09
2023-04-12T18:48:11.219Z,98688.05
2023-04-12T18:50:41.633Z,98686.26
2023-04-12T18:53:11.033Z,98688.48
2023-04-12T18:55:39.733Z,98689.39
2023-04-12T18:58:10.746Z,98691.06
2023-04-12T19:00:41.469Z,98688.28
2023-04-12T19:03:10.251Z,98689.79
2023-04-12T19:05:39.268Z,98694.27
2023-04-12T19:08:10.651Z,98688.21
2023-04-12T19:10:39.727Z,98691.89
2023-04-12T19:13:08.744Z,98689.06
2023-04-12T19:15:38.017Z,98691.00
2023-04-12T19:18:06.674Z,98688.38
2023-04-12T19:20:35.332Z,98687.43
2023-04-12T19:23:05.173Z,98687.77
2023-04-12T19:25:35.789Z,98686.38
2023-04-12T19:28:05.076Z,98681.88
2023-04-12T19:30:33.693Z,98681.77
2023-04-12T19:33:02.525Z,98682.14
2023-04-12T19:35:33.745Z,98675.21
2023-04-12T19:38:04.137Z,98678.48
2023-04-12T19:40:33.083Z,98678.88
2023-04-12T19:43:02.160Z,98683.08
2023-04-12T19:45:30.999Z,98685.73
2023-04-12T19:47:59.861Z,98683.23
2023-04-12T19:50:31.146Z,98689.88
2023-04-12T19:53:00.182Z,98691.63
2023-04-12T19:55:29.517Z,98694.95
2023-04-12T19:57:59.485Z,98695.58
2023-04-12T20:00:28.304Z,98693.14
2023-04-12T20:02:57.528Z,98695.61
2023-04-12T20:05:27.163Z,98699.95
2023-04-12T20:07:56.308Z,98698.69
2023-04-12T20:10:25.314Z,98698.01
2023-04-12T20:12:54.120Z,98701.23
2023-04-12T20:15:22.737Z,98700.48
2023-04-12T20:17:52.368Z,98703.05
2023-04-12T20:20:21.102Z,98699.54
2023-04-12T20:22:52.962Z,98699.21
2023-04-12T20:25:21.510Z,98695.86
2023-04-12T20:27:52.528Z,98691.53
2023-04-12T20:30:21.436Z,98691.02
2023-04-12T20:32:54.596Z,98695.88
2023-04-12T20:35:23.725Z,98697.48
2023-04-12T20:37:53.139Z,98700.23
2023-04-12T20:40:23.464Z,98712.77
2023-04-12T20:42:52.384Z,98710.70
2023-04-12T20:45:22.328Z,98708.52
2023-04-12T20:47:51.368Z,98710.79
2023-04-12T20:50:22.682Z,98717.27
2023-04-12T20:52:54.923Z,98713.15
2023-04-12T20:55:25.323Z,98709.02
2023-04-12T20:57:55.958Z,98711.11
2023-04-12T21:00:24.864Z,98708.15
2023-04-12T21:02:54.992Z,98712.59
2023-04-12T21:05:23.806Z,98711.38
2023-04-12T21:07:52.438Z,98712.73
2023-04-12T21:10:20.924Z,98718.20
2023-04-12T21:12:50.290Z,98721.34
2023-04-12T21:15:22.210Z,98724.91
2023-04-12T21:17:52.569Z,98728.02
2023-04-12T21:20:22.033Z,98732.31
2023-04-12T21:22:52.562Z,98733.47
2023-04-12T21:25:23.108Z,98736.20
2023-04-12T21:27:51.716Z,98735.79
2023-04-12T21:30:21.150Z,98735.77
2023-04-12T21:32:52.098Z,98734.92
2023-04-12T21:35:23.772Z,98730.02
2023-04-12T21:37:52.727Z,98732.95
2023-04-12T21:40:22.004Z,98726.55
2023-04-12T21:42:50.587Z,98725.61
2023-04-12T21:45:19.784Z,98728.91
2023-04-12T21:47:49.148Z,98729.04
2023-04-12T21:50:17.879Z,98725.39
2023-04-12T21:52:47.608Z,98729.08
2023-04-12T21:55:16.294Z,98728.02
2023-04-12T21:57:44.994Z,98726.19
2023-04-12T22:00:14.278Z,98735.05
2023-04-12T22:02:43.000Z,98739.88
2023-04-12T22:05:11.798Z,98740.30
2023-04-12T22:07:41.493Z,98744.52
2023-04-12T22:21:26.965Z,98740.83
2023-04-12T22:23:56.052Z,98739.09
2023-04-12T22:26:25.383Z,98738.39
2023-04-12T22:28:54.545Z,98734.14
2023-04-12T22:31:23.430Z,98732.09
2023-04-12T22:33:55.248Z,98727.27
2023-04-12T22:36:28.653Z,98728.45
2023-04-12T22:38:58.260Z,98721.64
2023-04-12T22:41:28.744Z,98720.05
2023-04-12T22:44:01.781Z,98717.62
2023-04-12T22:46:33.643Z,98715.40
2023-04-12T22:49:02.268Z,98711.31
2023-04-12T22:51:31.803Z,98712.18
2023-04-12T22:54:00.611Z,98707.17
2023-04-12T22:56:30.429Z,98708.74
2023-04-12T22:58:59.088Z,98710.70
2023-04-12T23:01:29.584Z,98711.27
2023-04-12T23:04:00.820Z,98704.59
2023-04-12T23:06:32.163Z,98707.77
2023-04-12T23:09:01.721Z,98705.52
2023-04-12T23:11:30.142Z,98707.52
2023-04-12T23:13:59.728Z,98705.90
2023-04-12T23:16:30.002Z,98705.24
2023-04-12T23:18:59.308Z,98704.30
2023-04-12T23:21:28.276Z,98702.52
2023-04-12T23:23:57.175Z,98701.12
2023-04-12T23:26:26.026Z,98697.60
2023-04-12T23:28:54.752Z,98694.95
2023-04-12T23:31:23.484Z,98692.91
2023-04-12T23:33:52.346Z,98689.06
2023-04-12T23:36:22.272Z,98684.19
2023-04-12T23:38:55.625Z,98684.67
2023-04-12T23:41:24.832Z,98687.19
2023-04-12T23:43:57.333Z,98684.88
2023-04-12T23:46:26.644Z,98683.88
2023-04-12T23:48:55.383Z,98683.39
2023-04-12T23:51:24.038Z,98668.64
2023-04-12T23:53:53.016Z,98672.14
2023-04-12T23:56:21.752Z,98679.25
2023-04-12T23:58:50.467Z,98675.30
